sensor_id;sensor_type;location;lat;lon;timestamp;temperature;humidity
6964;DHT22;3522;50.856;7.278;2022-09-25T00:01:24;12.70;99.90
6964;DHT22;3522;50.856;7.278;2022-09-25T00:03:51;12.70;99.90
6964;DHT22;3522;50.856;7.278;2022-09-25T00:06:19;12.70;99.90
6964;DHT22;3522;50.856;7.278;2022-09-25T00:08:46;12.70;99.90
6964;DHT22;3522;50.856;7.278;2022-09-25T00:11:14;12.70;99.90
6964;DHT22;3522;50.856;7.278;2022-09-25T00:13:42;12.70;99.90
6964;DHT22;3522;50.856;7.278;2022-09-25T00:16:10;12.70;99.90
6964;DHT22;3522;50.856;7.278;2022-09-25T00:18:36;12.70;99.90
6964;DHT22;3522;50.856;7.278;2022-09-25T00:21:23;12.70;99.90
6964;DHT22;3522;50.856;7.278;2022-09-25T00:23:55;12.60;99.90
6964;DHT22;3522;50.856;7.278;2022-09-25T00:26:22;12.60;99.90
6964;DHT22;3522;50.856;7.278;2022-09-25T00:28:50;12.60;99.90
6964;DHT22;3522;50.856;7.278;2022-09-25T00:31:18;12.60;99.90
6964;DHT22;3522;50.856;7.278;2022-09-25T00:33:47;12.60;99.90
6964;DHT22;3522;50.856;7.278;2022-09-25T00:36:14;12.60;99.90
6964;DHT22;3522;50.856;7.278;2022-09-25T00:38:40;12.60;99.90
6964;DHT22;3522;50.856;7.278;2022-09-25T00:41:07;12.60;99.90
6964;DHT22;3522;50.856;7.278;2022-09-25T00:43:36;12.50;99.90
6964;DHT22;3522;50.856;7.278;2022-09-25T00:46:06;12.50;99.90
6964;DHT22;3522;50.856;7.278;2022-09-25T00:48:33;12.50;99.90
6964;DHT22;3522;50.856;7.278;2022-09-25T00:51:00;12.50;99.90
6964;DHT22;3522;50.856;7.278;2022-09-25T00:53:27;12.50;99.90
6964;DHT22;3522;50.856;7.278;2022-09-25T00:55:55;12.50;99.90
6964;DHT22;3522;50.856;7.278;2022-09-25T00:58:24;12.50;99.90
6964;DHT22;3522;50.856;7.278;2022-09-25T01:00:53;12.50;99.90
6964;DHT22;3522;50.856;7.278;2022-09-25T01:03:21;12.50;99.90
6964;DHT22;3522;50.856;7.278;2022-09-25T01:05:48;12.50;99.90
6964;DHT22;3522;50.856;7.278;2022-09-25T01:08:15;12.50;99.90
6964;DHT22;3522;50.856;7.278;2022-09-25T01:10:43;12.50;99.90
6964;DHT22;3522;50.856;7.278;2022-09-25T01:13:09;12.50;99.90
6964;DHT22;3522;50.856;7.278;2022-09-25T01:15:38;12.50;99.90
6964;DHT22;3522;50.856;7.278;2022-09-25T01:18:11;12.50;99.90
6964;DHT22;3522;50.856;7.278;2022-09-25T01:20:49;12.50;99.90
6964;DHT22;3522;50.856;7.278;2022-09-25T01:23:21;12.40;99.90
6964;DHT22;3522;50.856;7.278;2022-09-25T01:25:57;12.50;99.90
6964;DHT22;3522;50.856;7.278;2022-09-25T01:28:42;12.50;99.90
6964;DHT22;3522;50.856;7.278;2022-09-25T01:31:17;12.40;99.90
6964;DHT22;3522;50.856;7.278;2022-09-25T01:33:45;12.40;99.90
6964;DHT22;3522;50.856;7.278;2022-09-25T01:36:14;12.40;99.90
6964;DHT22;3522;50.856;7.278;2022-09-25T01:38:42;12.50;99.90
6964;DHT22;3522;50.856;7.278;2022-09-25T01:41:11;12.40;99.90
6964;DHT22;3522;50.856;7.278;2022-09-25T01:43:43;12.40;99.90
6964;DHT22;3522;50.856;7.278;2022-09-25T01:46:10;12.40;99.90
6964;DHT22;3522;50.856;7.278;2022-09-25T01:48:38;12.40;99.90
6964;DHT22;3522;50.856;7.278;2022-09-25T01:51:07;12.40;99.90
6964;DHT22;3522;50.856;7.278;2022-09-25T01:53:37;12.40;99.90
6964;DHT22;3522;50.856;7.278;2022-09-25T01:56:05;12.40;99.90
6964;DHT22;3522;50.856;7.278;2022-09-25T01:58:33;12.40;99.90
6964;DHT22;3522;50.856;7.278;2022-09-25T02:01:03;12.40;99.90
6964;DHT22;3522;50.856;7.278;2022-09-25T02:03:31;12.40;99.90
6964;DHT22;3522;50.856;7.278;2022-09-25T02:06:01;12.40;99.90
6964;DHT22;3522;50.856;7.278;2022-09-25T02:08:29;12.40;99.90
6964;DHT22;3522;50.856;7.278;2022-09-25T02:10:56;12.40;99.90
6964;DHT22;3522;50.856;7.278;2022-09-25T02:13:27;12.40;99.90
6964;DHT22;3522;50.856;7.278;2022-09-25T02:15:58;12.40;99.90
6964;DHT22;3522;50.856;7.278;2022-09-25T02:18:27;12.40;99.90
6964;DHT22;3522;50.856;7.278;2022-09-25T02:21:12;12.40;99.90
6964;DHT22;3522;50.856;7.278;2022-09-25T02:23:43;12.40;99.90
6964;DHT22;3522;50.856;7.278;2022-09-25T02:26:15;12.40;99.90
6964;DHT22;3522;50.856;7.278;2022-09-25T02:28:43;12.40;99.90
6964;DHT22;3522;50.856;7.278;2022-09-25T02:31:10;12.40;99.90
6964;DHT22;3522;50.856;7.278;2022-09-25T02:33:38;12.40;99.90
6964;DHT22;3522;50.856;7.278;2022-09-25T02:36:05;12.40;99.90
6964;DHT22;3522;50.856;7.278;2022-09-25T02:38:32;12.40;99.90
6964;DHT22;3522;50.856;7.278;2022-09-25T02:41:00;12.40;99.90
6964;DHT22;3522;50.856;7.278;2022-09-25T02:43:32;12.40;99.90
6964;DHT22;3522;50.856;7.278;2022-09-25T02:46:04;12.30;99.90
6964;DHT22;3522;50.856;7.278;2022-09-25T02:48:35;12.30;99.90
6964;DHT22;3522;50.856;7.278;2022-09-25T02:51:17;12.40;99.90
6964;DHT22;3522;50.856;7.278;2022-09-25T02:53:46;12.30;99.90
6964;DHT22;3522;50.856;7.278;2022-09-25T02:56:15;12.30;99.90
6964;DHT22;3522;50.856;7.278;2022-09-25T02:58:44;12.30;99.90
6964;DHT22;3522;50.856;7.278;2022-09-25T03:01:13;12.30;99.90
6964;DHT22;3522;50.856;7.278;2022-09-25T03:03:40;12.30;99.90
6964;DHT22;3522;50.856;7.278;2022-09-25T03:06:07;12.30;99.90
6964;DHT22;3522;50.856;7.278;2022-09-25T03:08:37;12.30;99.90
6964;DHT22;3522;50.856;7.278;2022-09-25T03:11:03;12.30;99.90
6964;DHT22;3522;50.856;7.278;2022-09-25T03:13:29;12.20;99.90
6964;DHT22;3522;50.856;7.278;2022-09-25T03:15:59;12.20;99.90
6964;DHT22;3522;50.856;7.278;2022-09-25T03:18:27;12.20;99.90
6964;DHT22;3522;50.856;7.278;2022-09-25T03:20:55;12.20;99.90
6964;DHT22;3522;50.856;7.278;2022-09-25T03:23:21;12.20;99.90
6964;DHT22;3522;50.856;7.278;2022-09-25T03:25:51;12.20;99.90
6964;DHT22;3522;50.856;7.278;2022-09-25T03:28:18;12.20;99.90
6964;DHT22;3522;50.856;7.278;2022-09-25T03:30:53;12.20;99.90
6964;DHT22;3522;50.856;7.278;2022-09-25T03:33:20;12.20;99.90
6964;DHT22;3522;50.856;7.278;2022-09-25T03:35:47;12.20;99.90
6964;DHT22;3522;50.856;7.278;2022-09-25T03:38:13;12.20;99.90
6964;DHT22;3522;50.856;7.278;2022-09-25T03:40:40;12.10;99.90
6964;DHT22;3522;50.856;7.278;2022-09-25T03:43:09;12.10;99.90
6964;DHT22;3522;50.856;7.278;2022-09-25T03:45:36;12.10;99.90
6964;DHT22;3522;50.856;7.278;2022-09-25T03:48:02;12.10;99.90
6964;DHT22;3522;50.856;7.278;2022-09-25T03:50:29;12.10;99.90
6964;DHT22;3522;50.856;7.278;2022-09-25T03:52:55;12.10;99.90
6964;DHT22;3522;50.856;7.278;2022-09-25T03:55:22;12.10;99.90
6964;DHT22;3522;50.856;7.278;2022-09-25T03:57:50;12.10;99.90
6964;DHT22;3522;50.856;7.278;2022-09-25T04:00:18;12.10;99.90
6964;DHT22;3522;50.856;7.278;2022-09-25T04:02:44;12.10;99.90
6964;DHT22;3522;50.856;7.278;2022-09-25T04:05:11;12.00;99.90
6964;DHT22;3522;50.856;7.278;2022-09-25T04:07:37;12.10;99.90
6964;DHT22;3522;50.856;7.278;2022-09-25T04:10:04;12.00;99.90
6964;DHT22;3522;50.856;7.278;2022-09-25T04:12:31;12.00;99.90
6964;DHT22;3522;50.856;7.278;2022-09-25T04:14:57;12.10;99.90
6964;DHT22;3522;50.856;7.278;2022-09-25T04:17:25;12.10;99.90
6964;DHT22;3522;50.856;7.278;2022-09-25T04:19:53;12.10;99.90
6964;DHT22;3522;50.856;7.278;2022-09-25T04:22:20;12.00;99.90
6964;DHT22;3522;50.856;7.278;2022-09-25T04:24:46;12.00;99.90
6964;DHT22;3522;50.856;7.278;2022-09-25T04:27:13;12.00;99.90
6964;DHT22;3522;50.856;7.278;2022-09-25T04:29:39;12.00;99.90
6964;DHT22;3522;50.856;7.278;2022-09-25T04:32:06;12.00;99.90
6964;DHT22;3522;50.856;7.278;2022-09-25T04:34:52;12.00;99.90
6964;DHT22;3522;50.856;7.278;2022-09-25T04:37:18;12.00;99.90
6964;DHT22;3522;50.856;7.278;2022-09-25T04:39:47;12.00;99.90
6964;DHT22;3522;50.856;7.278;2022-09-25T04:42:14;12.00;99.90
6964;DHT22;3522;50.856;7.278;2022-09-25T04:44:40;11.90;99.90
6964;DHT22;3522;50.856;7.278;2022-09-25T04:47:07;12.00;99.90
6964;DHT22;3522;50.856;7.278;2022-09-25T04:49:33;12.00;99.90
6964;DHT22;3522;50.856;7.278;2022-09-25T04:52:03;11.90;99.90
6964;DHT22;3522;50.856;7.278;2022-09-25T04:54:30;11.90;99.90
6964;DHT22;3522;50.856;7.278;2022-09-25T04:56:57;11.90;99.90
6964;DHT22;3522;50.856;7.278;2022-09-25T04:59:23;11.90;99.90
6964;DHT22;3522;50.856;7.278;2022-09-25T05:01:50;11.90;99.90
6964;DHT22;3522;50.856;7.278;2022-09-25T05:04:17;11.90;99.90
6964;DHT22;3522;50.856;7.278;2022-09-25T05:06:44;11.90;99.90
6964;DHT22;3522;50.856;7.278;2022-09-25T05:09:12;11.90;99.90
6964;DHT22;3522;50.856;7.278;2022-09-25T05:11:39;11.80;99.90
6964;DHT22;3522;50.856;7.278;2022-09-25T05:14:06;11.80;99.90
6964;DHT22;3522;50.856;7.278;2022-09-25T05:16:33;11.80;99.90
6964;DHT22;3522;50.856;7.278;2022-09-25T05:18:59;11.80;99.90
6964;DHT22;3522;50.856;7.278;2022-09-25T05:21:26;11.80;99.90
6964;DHT22;3522;50.856;7.278;2022-09-25T05:23:53;11.80;99.90
6964;DHT22;3522;50.856;7.278;2022-09-25T05:26:22;11.80;99.90
6964;DHT22;3522;50.856;7.278;2022-09-25T05:28:49;11.80;99.90
6964;DHT22;3522;50.856;7.278;2022-09-25T05:31:15;11.80;99.90
6964;DHT22;3522;50.856;7.278;2022-09-25T05:33:42;11.80;99.90
6964;DHT22;3522;50.856;7.278;2022-09-25T05:36:09;11.80;99.90
6964;DHT22;3522;50.856;7.278;2022-09-25T05:38:36;11.80;99.90
6964;DHT22;3522;50.856;7.278;2022-09-25T05:41:03;11.80;99.90
6964;DHT22;3522;50.856;7.278;2022-09-25T05:43:32;11.80;99.90
6964;DHT22;3522;50.856;7.278;2022-09-25T05:45:59;11.80;99.90
6964;DHT22;3522;50.856;7.278;2022-09-25T05:48:26;11.80;99.90
6964;DHT22;3522;50.856;7.278;2022-09-25T05:50:53;11.80;99.90
6964;DHT22;3522;50.856;7.278;2022-09-25T05:53:19;11.80;99.90
6964;DHT22;3522;50.856;7.278;2022-09-25T05:55:49;11.80;99.90
6964;DHT22;3522;50.856;7.278;2022-09-25T05:58:16;11.80;99.90
6964;DHT22;3522;50.856;7.278;2022-09-25T06:00:44;11.80;99.90
6964;DHT22;3522;50.856;7.278;2022-09-25T06:03:10;11.80;99.90
6964;DHT22;3522;50.856;7.278;2022-09-25T06:05:37;11.80;99.90
6964;DHT22;3522;50.856;7.278;2022-09-25T06:08:05;11.80;99.90
6964;DHT22;3522;50.856;7.278;2022-09-25T06:10:31;11.80;99.90
6964;DHT22;3522;50.856;7.278;2022-09-25T06:12:58;11.80;99.90
6964;DHT22;3522;50.856;7.278;2022-09-25T06:15:25;11.80;99.90
6964;DHT22;3522;50.856;7.278;2022-09-25T06:17:53;11.80;99.90
6964;DHT22;3522;50.856;7.278;2022-09-25T06:20:20;11.80;99.90
6964;DHT22;3522;50.856;7.278;2022-09-25T06:22:50;11.80;99.90
6964;DHT22;3522;50.856;7.278;2022-09-25T06:25:17;11.90;99.90
6964;DHT22;3522;50.856;7.278;2022-09-25T06:27:45;11.90;99.90
6964;DHT22;3522;50.856;7.278;2022-09-25T06:30:12;11.90;99.90
6964;DHT22;3522;50.856;7.278;2022-09-25T06:32:38;11.90;99.90
6964;DHT22;3522;50.856;7.278;2022-09-25T06:35:07;11.90;99.90
6964;DHT22;3522;50.856;7.278;2022-09-25T06:37:33;11.80;99.90
6964;DHT22;3522;50.856;7.278;2022-09-25T06:40:00;11.80;99.90
6964;DHT22;3522;50.856;7.278;2022-09-25T06:42:27;11.80;99.90
6964;DHT22;3522;50.856;7.278;2022-09-25T06:44:53;11.80;99.90
6964;DHT22;3522;50.856;7.278;2022-09-25T06:47:20;11.80;99.90
6964;DHT22;3522;50.856;7.278;2022-09-25T06:49:46;11.80;99.90
6964;DHT22;3522;50.856;7.278;2022-09-25T06:52:14;11.80;99.90
6964;DHT22;3522;50.856;7.278;2022-09-25T06:54:41;11.80;99.90
6964;DHT22;3522;50.856;7.278;2022-09-25T06:57:07;11.80;99.90
6964;DHT22;3522;50.856;7.278;2022-09-25T06:59:36;11.80;99.90
6964;DHT22;3522;50.856;7.278;2022-09-25T07:02:02;11.80;99.90
6964;DHT22;3522;50.856;7.278;2022-09-25T07:04:49;11.80;99.90
6964;DHT22;3522;50.856;7.278;2022-09-25T07:07:17;11.90;99.90
6964;DHT22;3522;50.856;7.278;2022-09-25T07:09:45;11.90;99.90
6964;DHT22;3522;50.856;7.278;2022-09-25T07:12:12;11.90;99.90
6964;DHT22;3522;50.856;7.278;2022-09-25T07:14:39;12.00;99.90
6964;DHT22;3522;50.856;7.278;2022-09-25T07:17:07;12.00;99.90
6964;DHT22;3522;50.856;7.278;2022-09-25T07:19:33;12.00;99.90
6964;DHT22;3522;50.856;7.278;2022-09-25T07:22:00;12.00;99.90
6964;DHT22;3522;50.856;7.278;2022-09-25T07:24:30;12.00;99.90
6964;DHT22;3522;50.856;7.278;2022-09-25T07:26:57;12.10;99.90
6964;DHT22;3522;50.856;7.278;2022-09-25T07:29:23;12.10;99.90
6964;DHT22;3522;50.856;7.278;2022-09-25T07:31:50;12.10;99.90
6964;DHT22;3522;50.856;7.278;2022-09-25T07:34:17;12.10;99.90
6964;DHT22;3522;50.856;7.278;2022-09-25T07:36:43;12.20;99.90
6964;DHT22;3522;50.856;7.278;2022-09-25T07:39:10;12.20;99.90
6964;DHT22;3522;50.856;7.278;2022-09-25T07:41:38;12.30;99.90
6964;DHT22;3522;50.856;7.278;2022-09-25T07:44:05;12.40;99.90
6964;DHT22;3522;50.856;7.278;2022-09-25T07:46:31;12.50;99.90
6964;DHT22;3522;50.856;7.278;2022-09-25T07:48:58;12.50;99.90
6964;DHT22;3522;50.856;7.278;2022-09-25T07:51:25;12.50;99.90
6964;DHT22;3522;50.856;7.278;2022-09-25T07:53:51;12.60;99.90
6964;DHT22;3522;50.856;7.278;2022-09-25T07:56:18;12.60;99.90
6964;DHT22;3522;50.856;7.278;2022-09-25T07:58:46;12.60;99.90
6964;DHT22;3522;50.856;7.278;2022-09-25T08:01:13;12.60;99.90
6964;DHT22;3522;50.856;7.278;2022-09-25T08:03:39;12.70;99.90
6964;DHT22;3522;50.856;7.278;2022-09-25T08:06:07;12.60;99.90
6964;DHT22;3522;50.856;7.278;2022-09-25T08:08:36;12.60;99.90
6964;DHT22;3522;50.856;7.278;2022-09-25T08:11:03;12.60;99.90
6964;DHT22;3522;50.856;7.278;2022-09-25T08:13:31;12.60;99.90
6964;DHT22;3522;50.856;7.278;2022-09-25T08:16:00;12.70;99.90
6964;DHT22;3522;50.856;7.278;2022-09-25T08:18:26;12.70;99.90
6964;DHT22;3522;50.856;7.278;2022-09-25T08:20:53;12.70;99.90
6964;DHT22;3522;50.856;7.278;2022-09-25T08:23:20;12.70;99.90
6964;DHT22;3522;50.856;7.278;2022-09-25T08:25:46;12.80;99.90
6964;DHT22;3522;50.856;7.278;2022-09-25T08:28:13;12.80;99.90
6964;DHT22;3522;50.856;7.278;2022-09-25T08:30:40;12.80;99.90
6964;DHT22;3522;50.856;7.278;2022-09-25T08:33:10;12.80;99.90
6964;DHT22;3522;50.856;7.278;2022-09-25T08:35:37;12.80;99.90
6964;DHT22;3522;50.856;7.278;2022-09-25T08:38:05;12.80;99.90
6964;DHT22;3522;50.856;7.278;2022-09-25T08:40:32;12.80;99.90
6964;DHT22;3522;50.856;7.278;2022-09-25T08:42:59;12.90;99.90
6964;DHT22;3522;50.856;7.278;2022-09-25T08:45:27;13.00;99.90
6964;DHT22;3522;50.856;7.278;2022-09-25T08:48:19;13.10;99.90
6964;DHT22;3522;50.856;7.278;2022-09-25T08:51:04;13.20;99.90
6964;DHT22;3522;50.856;7.278;2022-09-25T08:53:32;13.30;99.90
6964;DHT22;3522;50.856;7.278;2022-09-25T08:55:59;13.30;99.90
6964;DHT22;3522;50.856;7.278;2022-09-25T08:58:42;13.30;99.90
6964;DHT22;3522;50.856;7.278;2022-09-25T09:01:10;13.30;99.90
6964;DHT22;3522;50.856;7.278;2022-09-25T09:03:43;13.40;99.90
6964;DHT22;3522;50.856;7.278;2022-09-25T09:06:11;13.60;99.90
6964;DHT22;3522;50.856;7.278;2022-09-25T09:08:38;13.70;99.90
6964;DHT22;3522;50.856;7.278;2022-09-25T09:11:06;13.90;99.90
6964;DHT22;3522;50.856;7.278;2022-09-25T09:13:34;14.10;99.90
6964;DHT22;3522;50.856;7.278;2022-09-25T09:16:04;14.10;99.90
6964;DHT22;3522;50.856;7.278;2022-09-25T09:18:32;14.40;99.90
6964;DHT22;3522;50.856;7.278;2022-09-25T09:21:05;14.60;99.90
6964;DHT22;3522;50.856;7.278;2022-09-25T09:23:35;14.90;99.90
6964;DHT22;3522;50.856;7.278;2022-09-25T09:26:09;14.90;99.90
6964;DHT22;3522;50.856;7.278;2022-09-25T09:28:43;14.90;99.90
6964;DHT22;3522;50.856;7.278;2022-09-25T09:31:14;14.70;99.90
6964;DHT22;3522;50.856;7.278;2022-09-25T09:33:44;14.70;99.90
6964;DHT22;3522;50.856;7.278;2022-09-25T09:36:16;14.60;99.90
6964;DHT22;3522;50.856;7.278;2022-09-25T09:38:47;14.60;99.90
6964;DHT22;3522;50.856;7.278;2022-09-25T09:41:19;14.70;99.90
6964;DHT22;3522;50.856;7.278;2022-09-25T09:43:53;14.80;99.90
6964;DHT22;3522;50.856;7.278;2022-09-25T09:46:24;15.00;99.90
6964;DHT22;3522;50.856;7.278;2022-09-25T09:48:58;15.20;99.90
6964;DHT22;3522;50.856;7.278;2022-09-25T09:51:29;15.40;99.90
6964;DHT22;3522;50.856;7.278;2022-09-25T09:53:59;15.40;99.90
6964;DHT22;3522;50.856;7.278;2022-09-25T09:56:28;15.50;99.90
6964;DHT22;3522;50.856;7.278;2022-09-25T09:58:56;15.60;99.90
6964;DHT22;3522;50.856;7.278;2022-09-25T10:01:24;15.60;99.90
6964;DHT22;3522;50.856;7.278;2022-09-25T10:03:53;15.90;99.90
6964;DHT22;3522;50.856;7.278;2022-09-25T10:06:24;16.00;99.90
6964;DHT22;3522;50.856;7.278;2022-09-25T10:08:55;16.10;99.90
6964;DHT22;3522;50.856;7.278;2022-09-25T10:11:21;16.20;99.90
6964;DHT22;3522;50.856;7.278;2022-09-25T10:13:48;16.30;99.90
6964;DHT22;3522;50.856;7.278;2022-09-25T10:16:16;16.40;99.90
6964;DHT22;3522;50.856;7.278;2022-09-25T10:18:44;16.40;99.90
6964;DHT22;3522;50.856;7.278;2022-09-25T10:21:13;16.30;99.90
6964;DHT22;3522;50.856;7.278;2022-09-25T10:23:46;16.30;99.90
6964;DHT22;3522;50.856;7.278;2022-09-25T10:26:27;16.30;99.90
6964;DHT22;3522;50.856;7.278;2022-09-25T10:28:55;16.30;99.90
6964;DHT22;3522;50.856;7.278;2022-09-25T10:31:22;16.30;99.90
6964;DHT22;3522;50.856;7.278;2022-09-25T10:33:59;16.30;99.90
6964;DHT22;3522;50.856;7.278;2022-09-25T10:36:30;16.20;99.90
6964;DHT22;3522;50.856;7.278;2022-09-25T10:38:57;16.30;99.90
6964;DHT22;3522;50.856;7.278;2022-09-25T10:41:24;16.30;99.90
6964;DHT22;3522;50.856;7.278;2022-09-25T10:43:53;16.30;99.90
6964;DHT22;3522;50.856;7.278;2022-09-25T10:46:27;16.30;99.90
6964;DHT22;3522;50.856;7.278;2022-09-25T10:49:11;16.20;99.90
6964;DHT22;3522;50.856;7.278;2022-09-25T10:51:59;16.20;99.90
6964;DHT22;3522;50.856;7.278;2022-09-25T10:54:26;16.20;99.90
6964;DHT22;3522;50.856;7.278;2022-09-25T10:56:53;16.20;99.90
6964;DHT22;3522;50.856;7.278;2022-09-25T10:59:22;16.30;99.90
6964;DHT22;3522;50.856;7.278;2022-09-25T11:01:49;16.40;99.90
6964;DHT22;3522;50.856;7.278;2022-09-25T11:04:19;16.70;99.90
6964;DHT22;3522;50.856;7.278;2022-09-25T11:06:48;16.80;99.90
6964;DHT22;3522;50.856;7.278;2022-09-25T11:09:16;16.60;99.90
6964;DHT22;3522;50.856;7.278;2022-09-25T11:11:44;16.70;99.90
6964;DHT22;3522;50.856;7.278;2022-09-25T11:14:16;17.10;99.90
6964;DHT22;3522;50.856;7.278;2022-09-25T11:16:48;17.40;99.90
6964;DHT22;3522;50.856;7.278;2022-09-25T11:19:15;17.60;99.90
6964;DHT22;3522;50.856;7.278;2022-09-25T11:21:46;17.70;99.90
6964;DHT22;3522;50.856;7.278;2022-09-25T11:24:18;17.80;99.90
6964;DHT22;3522;50.856;7.278;2022-09-25T11:26:47;17.80;99.90
6964;DHT22;3522;50.856;7.278;2022-09-25T11:29:19;17.50;99.90
6964;DHT22;3522;50.856;7.278;2022-09-25T11:31:49;17.20;99.90
6964;DHT22;3522;50.856;7.278;2022-09-25T11:34:19;16.90;99.90
6964;DHT22;3522;50.856;7.278;2022-09-25T11:36:50;16.70;99.90
6964;DHT22;3522;50.856;7.278;2022-09-25T11:39:19;16.60;99.90
6964;DHT22;3522;50.856;7.278;2022-09-25T11:42:06;16.50;99.90
6964;DHT22;3522;50.856;7.278;2022-09-25T11:44:36;16.60;99.90
6964;DHT22;3522;50.856;7.278;2022-09-25T11:47:07;16.70;99.90
6964;DHT22;3522;50.856;7.278;2022-09-25T11:49:40;16.60;99.90
6964;DHT22;3522;50.856;7.278;2022-09-25T11:52:20;16.60;99.90
6964;DHT22;3522;50.856;7.278;2022-09-25T11:54:58;16.60;99.90
6964;DHT22;3522;50.856;7.278;2022-09-25T11:57:30;16.50;99.90
6964;DHT22;3522;50.856;7.278;2022-09-25T12:00:02;16.40;99.90
6964;DHT22;3522;50.856;7.278;2022-09-25T12:02:32;16.40;99.90
6964;DHT22;3522;50.856;7.278;2022-09-25T12:05:11;16.30;99.90
6964;DHT22;3522;50.856;7.278;2022-09-25T12:07:53;16.20;99.90
6964;DHT22;3522;50.856;7.278;2022-09-25T12:10:28;16.00;99.90
6964;DHT22;3522;50.856;7.278;2022-09-25T12:13:01;15.80;99.90
6964;DHT22;3522;50.856;7.278;2022-09-25T12:15:35;15.80;99.90
6964;DHT22;3522;50.856;7.278;2022-09-25T12:18:09;16.20;99.90
6964;DHT22;3522;50.856;7.278;2022-09-25T12:20:40;16.60;99.90
6964;DHT22;3522;50.856;7.278;2022-09-25T12:23:12;17.10;99.90
6964;DHT22;3522;50.856;7.278;2022-09-25T12:25:46;17.40;99.90
6964;DHT22;3522;50.856;7.278;2022-09-25T12:28:16;17.50;99.90
6964;DHT22;3522;50.856;7.278;2022-09-25T12:30:47;17.30;99.90
6964;DHT22;3522;50.856;7.278;2022-09-25T12:33:22;17.10;99.90
6964;DHT22;3522;50.856;7.278;2022-09-25T12:35:50;17.10;99.90
6964;DHT22;3522;50.856;7.278;2022-09-25T12:38:21;17.00;99.90
6964;DHT22;3522;50.856;7.278;2022-09-25T12:40:50;17.10;99.90
6964;DHT22;3522;50.856;7.278;2022-09-25T12:43:21;17.40;99.90
6964;DHT22;3522;50.856;7.278;2022-09-25T12:45:51;17.70;99.90
6964;DHT22;3522;50.856;7.278;2022-09-25T12:48:22;17.80;99.90
6964;DHT22;3522;50.856;7.278;2022-09-25T12:50:51;17.60;99.90
6964;DHT22;3522;50.856;7.278;2022-09-25T12:53:21;17.40;99.90
6964;DHT22;3522;50.856;7.278;2022-09-25T12:55:49;17.10;99.90
6964;DHT22;3522;50.856;7.278;2022-09-25T12:58:19;17.00;99.90
6964;DHT22;3522;50.856;7.278;2022-09-25T13:00:48;17.10;99.90
6964;DHT22;3522;50.856;7.278;2022-09-25T13:03:19;17.30;99.90
6964;DHT22;3522;50.856;7.278;2022-09-25T13:05:48;17.60;99.90
6964;DHT22;3522;50.856;7.278;2022-09-25T13:08:24;17.80;99.90
6964;DHT22;3522;50.856;7.278;2022-09-25T13:10:52;17.90;99.90
6964;DHT22;3522;50.856;7.278;2022-09-25T13:13:22;17.80;99.90
6964;DHT22;3522;50.856;7.278;2022-09-25T13:15:51;17.60;99.90
6964;DHT22;3522;50.856;7.278;2022-09-25T13:18:19;17.70;99.90
6964;DHT22;3522;50.856;7.278;2022-09-25T13:20:47;17.70;99.90
6964;DHT22;3522;50.856;7.278;2022-09-25T13:23:14;17.60;99.90
6964;DHT22;3522;50.856;7.278;2022-09-25T13:25:43;17.50;99.90
6964;DHT22;3522;50.856;7.278;2022-09-25T13:28:13;17.50;99.90
6964;DHT22;3522;50.856;7.278;2022-09-25T13:30:55;17.70;99.90
6964;DHT22;3522;50.856;7.278;2022-09-25T13:33:22;17.90;99.90
6964;DHT22;3522;50.856;7.278;2022-09-25T13:35:48;17.80;99.90
6964;DHT22;3522;50.856;7.278;2022-09-25T13:38:27;17.50;99.90
6964;DHT22;3522;50.856;7.278;2022-09-25T13:41:09;17.10;99.90
6964;DHT22;3522;50.856;7.278;2022-09-25T13:43:36;17.10;99.90
6964;DHT22;3522;50.856;7.278;2022-09-25T13:46:21;17.20;99.90
6964;DHT22;3522;50.856;7.278;2022-09-25T13:48:48;17.30;99.90
6964;DHT22;3522;50.856;7.278;2022-09-25T13:51:26;17.50;99.90
6964;DHT22;3522;50.856;7.278;2022-09-25T13:53:59;17.60;99.90
6964;DHT22;3522;50.856;7.278;2022-09-25T13:56:43;17.60;99.90
6964;DHT22;3522;50.856;7.278;2022-09-25T14:01:54;17.60;99.90
6964;DHT22;3522;50.856;7.278;2022-09-25T14:04:28;17.50;99.90
6964;DHT22;3522;50.856;7.278;2022-09-25T14:07:05;17.20;99.90
6964;DHT22;3522;50.856;7.278;2022-09-25T14:09:36;17.10;99.90
6964;DHT22;3522;50.856;7.278;2022-09-25T14:12:08;17.00;99.90
6964;DHT22;3522;50.856;7.278;2022-09-25T14:14:43;17.00;99.90
6964;DHT22;3522;50.856;7.278;2022-09-25T14:17:17;17.00;99.90
6964;DHT22;3522;50.856;7.278;2022-09-25T14:19:44;16.80;99.90
6964;DHT22;3522;50.856;7.278;2022-09-25T14:22:16;16.90;99.90
6964;DHT22;3522;50.856;7.278;2022-09-25T14:24:44;16.90;99.90
6964;DHT22;3522;50.856;7.278;2022-09-25T14:27:17;16.90;99.90
6964;DHT22;3522;50.856;7.278;2022-09-25T14:29:46;16.80;99.90
6964;DHT22;3522;50.856;7.278;2022-09-25T14:32:14;16.80;99.90
6964;DHT22;3522;50.856;7.278;2022-09-25T14:34:46;16.80;99.90
6964;DHT22;3522;50.856;7.278;2022-09-25T14:37:23;16.80;99.90
6964;DHT22;3522;50.856;7.278;2022-09-25T14:39:56;16.80;99.90
6964;DHT22;3522;50.856;7.278;2022-09-25T14:42:34;16.80;99.90
6964;DHT22;3522;50.856;7.278;2022-09-25T14:45:06;16.90;99.90
6964;DHT22;3522;50.856;7.278;2022-09-25T14:47:37;16.90;99.90
6964;DHT22;3522;50.856;7.278;2022-09-25T14:50:09;16.80;99.90
6964;DHT22;3522;50.856;7.278;2022-09-25T14:52:42;16.90;99.90
6964;DHT22;3522;50.856;7.278;2022-09-25T14:55:11;16.90;99.90
6964;DHT22;3522;50.856;7.278;2022-09-25T14:57:41;17.00;99.90
6964;DHT22;3522;50.856;7.278;2022-09-25T15:00:12;17.00;99.90
6964;DHT22;3522;50.856;7.278;2022-09-25T15:02:41;17.00;99.90
6964;DHT22;3522;50.856;7.278;2022-09-25T15:05:16;16.90;99.90
6964;DHT22;3522;50.856;7.278;2022-09-25T15:07:43;16.90;99.90
6964;DHT22;3522;50.856;7.278;2022-09-25T15:10:27;16.80;99.90
6964;DHT22;3522;50.856;7.278;2022-09-25T15:13:03;16.70;99.90
6964;DHT22;3522;50.856;7.278;2022-09-25T15:15:30;16.60;99.90
6964;DHT22;3522;50.856;7.278;2022-09-25T15:17:56;16.50;99.90
6964;DHT22;3522;50.856;7.278;2022-09-25T15:20:25;16.40;99.90
6964;DHT22;3522;50.856;7.278;2022-09-25T15:22:53;16.20;99.90
6964;DHT22;3522;50.856;7.278;2022-09-25T15:25:22;16.00;99.90
6964;DHT22;3522;50.856;7.278;2022-09-25T15:27:49;15.70;99.90
6964;DHT22;3522;50.856;7.278;2022-09-25T15:30:17;15.50;99.90
6964;DHT22;3522;50.856;7.278;2022-09-25T15:32:45;15.30;99.90
6964;DHT22;3522;50.856;7.278;2022-09-25T15:35:13;15.20;99.90
6964;DHT22;3522;50.856;7.278;2022-09-25T15:37:41;15.20;99.90
6964;DHT22;3522;50.856;7.278;2022-09-25T15:40:13;15.40;99.90
6964;DHT22;3522;50.856;7.278;2022-09-25T15:42:42;15.50;99.90
6964;DHT22;3522;50.856;7.278;2022-09-25T15:45:23;15.60;99.90
6964;DHT22;3522;50.856;7.278;2022-09-25T15:47:54;15.60;99.90
6964;DHT22;3522;50.856;7.278;2022-09-25T15:50:23;15.70;99.90
6964;DHT22;3522;50.856;7.278;2022-09-25T15:52:51;15.70;99.90
6964;DHT22;3522;50.856;7.278;2022-09-25T15:55:18;15.70;99.90
6964;DHT22;3522;50.856;7.278;2022-09-25T15:57:46;15.70;99.90
6964;DHT22;3522;50.856;7.278;2022-09-25T16:00:16;15.70;99.90
6964;DHT22;3522;50.856;7.278;2022-09-25T16:03:04;15.60;99.90
6964;DHT22;3522;50.856;7.278;2022-09-25T16:05:48;15.50;99.90
6964;DHT22;3522;50.856;7.278;2022-09-25T16:08:22;15.40;99.90
6964;DHT22;3522;50.856;7.278;2022-09-25T16:11:01;15.40;99.90
6964;DHT22;3522;50.856;7.278;2022-09-25T16:13:29;15.30;99.90
6964;DHT22;3522;50.856;7.278;2022-09-25T16:15:57;15.20;99.90
6964;DHT22;3522;50.856;7.278;2022-09-25T16:18:26;15.20;99.90
6964;DHT22;3522;50.856;7.278;2022-09-25T16:20:55;15.10;99.90